VRE523 DBBB-DGAA
Flight info
| Callsign | VRE523 |
|---|---|
| Flight time | 0h 29m |
| Altitude | 22000 |
| Route | TYE UL433 EREKA EREKA1A |
| Aircraft | A320/M-SDE3FGHIRWY/LB1 |
Departure
| Time | 2026-04-29 06:34 |
|---|---|
| Airport | Cotonou Cadjehoun International Airport (DBBB) |
Arrival
| Time | 2026-04-29 07:04 |
|---|---|
| Airport | Kotoka International Airport (DGAA) |
| Time | Latitude | Longitude | Altitude | Speed | Heading |
|---|---|---|---|---|---|
| 2026-04-29 06:12 | 6.35435 | 2.38382 | 31 ft | 0 kts | 273° |
| 2026-04-29 06:29 | 6.35435 | 2.38379 | 31 ft | 1 kts | 273° |
| 2026-04-29 06:29 | 6.35442 | 2.38375 | 30 ft | 1 kts | 348° |
| 2026-04-29 06:29 | 6.35464 | 2.38388 | 30 ft | 6 kts | 44° |
| 2026-04-29 06:30 | 6.35503 | 2.38422 | 31 ft | 8 kts | 21° |
| 2026-04-29 06:30 | 6.35637 | 2.38362 | 28 ft | 9 kts | 12° |
| 2026-04-29 06:30 | 6.35690 | 2.38407 | 29 ft | 12 kts | 51° |
| 2026-04-29 06:31 | 6.35749 | 2.38485 | 29 ft | 16 kts | 53° |
| 2026-04-29 06:31 | 6.35830 | 2.38594 | 28 ft | 23 kts | 53° |
| 2026-04-29 06:31 | 6.35941 | 2.38743 | 28 ft | 30 kts | 52° |
| 2026-04-29 06:31 | 6.36082 | 2.38934 | 26 ft | 37 kts | 54° |
| 2026-04-29 06:32 | 6.36224 | 2.39113 | 24 ft | 23 kts | 52° |
| 2026-04-29 06:32 | 6.36312 | 2.39239 | 26 ft | 17 kts | 75° |
| 2026-04-29 06:32 | 6.36308 | 2.39307 | 27 ft | 12 kts | 62° |
| 2026-04-29 06:32 | 6.36359 | 2.39279 | 27 ft | 12 kts | 249° |
| 2026-04-29 06:33 | 6.36315 | 2.39230 | 27 ft | 13 kts | 227° |
| 2026-04-29 06:33 | 6.36277 | 2.39185 | 25 ft | 0 kts | 234° |
| 2026-04-29 06:34 | 6.36249 | 2.39144 | 24 ft | 31 kts | 234° |
| 2026-04-29 06:34 | 6.35959 | 2.38763 | 28 ft | 103 kts | 232° |
| 2026-04-29 06:34 | 6.35401 | 2.38029 | 32 ft | 158 kts | 231° |
| 2026-04-29 06:34 | 6.34727 | 2.37084 | 629 ft | 163 kts | 233° |
| 2026-04-29 06:35 | 6.34076 | 2.36176 | 1350 ft | 164 kts | 235° |
| 2026-04-29 06:35 | 6.33384 | 2.35177 | 1704 ft | 185 kts | 242° |
| 2026-04-29 06:35 | 6.33042 | 2.33853 | 1970 ft | 209 kts | 262° |
| 2026-04-29 06:35 | 6.32857 | 2.32313 | 2334 ft | 234 kts | 262° |
| 2026-04-29 06:36 | 6.32659 | 2.30614 | 2803 ft | 254 kts | 262° |
| 2026-04-29 06:36 | 6.32451 | 2.28816 | 3633 ft | 261 kts | 262° |
| 2026-04-29 06:36 | 6.32240 | 2.26984 | 4478 ft | 268 kts | 262° |
| 2026-04-29 06:36 | 6.32023 | 2.25098 | 5263 ft | 276 kts | 262° |
| 2026-04-29 06:37 | 6.31798 | 2.23149 | 6015 ft | 284 kts | 263° |
| 2026-04-29 06:37 | 6.31566 | 2.21154 | 6753 ft | 292 kts | 263° |
| 2026-04-29 06:37 | 6.31327 | 2.19100 | 7465 ft | 300 kts | 263° |
| 2026-04-29 06:37 | 6.31082 | 2.16984 | 8186 ft | 307 kts | 263° |
| 2026-04-29 06:38 | 6.30832 | 2.14826 | 8909 ft | 315 kts | 263° |
| 2026-04-29 06:38 | 6.30577 | 2.12613 | 9631 ft | 322 kts | 263° |
| 2026-04-29 06:38 | 6.30316 | 2.10356 | 10085 ft | 339 kts | 263° |
| 2026-04-29 06:38 | 6.30031 | 2.07895 | 10315 ft | 363 kts | 263° |
| 2026-04-29 06:39 | 6.29728 | 2.05291 | 10528 ft | 384 kts | 263° |
| 2026-04-29 06:39 | 6.29419 | 2.02632 | 11027 ft | 393 kts | 263° |
| 2026-04-29 06:39 | 6.29098 | 1.99884 | 11680 ft | 397 kts | 263° |
| 2026-04-29 06:39 | 6.28776 | 1.97131 | 12385 ft | 399 kts | 263° |
| 2026-04-29 06:40 | 6.28450 | 1.94337 | 13081 ft | 402 kts | 263° |
| 2026-04-29 06:40 | 6.28125 | 1.91537 | 13755 ft | 405 kts | 263° |
| 2026-04-29 06:40 | 6.27798 | 1.88713 | 14380 ft | 407 kts | 263° |
| 2026-04-29 06:40 | 6.27467 | 1.85883 | 15013 ft | 409 kts | 263° |
| 2026-04-29 06:41 | 6.27130 | 1.83025 | 15626 ft | 411 kts | 263° |
| 2026-04-29 06:41 | 6.26796 | 1.80179 | 16228 ft | 413 kts | 263° |
| 2026-04-29 06:41 | 6.26452 | 1.77307 | 16824 ft | 415 kts | 262° |
| 2026-04-29 06:41 | 6.26049 | 1.74427 | 17410 ft | 417 kts | 261° |
| 2026-04-29 06:42 | 6.25591 | 1.71541 | 17986 ft | 419 kts | 260° |
| 2026-04-29 06:42 | 6.25103 | 1.68648 | 18489 ft | 421 kts | 260° |
| 2026-04-29 06:42 | 6.24607 | 1.65739 | 18960 ft | 424 kts | 260° |
| 2026-04-29 06:42 | 6.24117 | 1.62822 | 19425 ft | 426 kts | 260° |
| 2026-04-29 06:43 | 6.23634 | 1.59870 | 19885 ft | 428 kts | 260° |
| 2026-04-29 06:43 | 6.23162 | 1.56898 | 20343 ft | 431 kts | 260° |
| 2026-04-29 06:43 | 6.22692 | 1.53917 | 20792 ft | 433 kts | 260° |
| 2026-04-29 06:43 | 6.22222 | 1.50929 | 21232 ft | 435 kts | 260° |
| 2026-04-29 06:44 | 6.21750 | 1.47914 | 21673 ft | 438 kts | 260° |
| 2026-04-29 06:44 | 6.21279 | 1.44921 | 21879 ft | 439 kts | 260° |
| 2026-04-29 06:44 | 6.20793 | 1.41862 | 21939 ft | 450 kts | 260° |
| 2026-04-29 06:44 | 6.20293 | 1.38717 | 21933 ft | 459 kts | 260° |
| 2026-04-29 06:45 | 6.19789 | 1.35542 | 21935 ft | 461 kts | 260° |
| 2026-04-29 06:45 | 6.19281 | 1.32362 | 21947 ft | 462 kts | 260° |
| 2026-04-29 06:45 | 6.18762 | 1.29135 | 21946 ft | 462 kts | 259° |
| 2026-04-29 06:45 | 6.17976 | 1.26045 | 21939 ft | 461 kts | 250° |
| 2026-04-29 06:46 | 6.16759 | 1.23067 | 21955 ft | 461 kts | 245° |
| 2026-04-29 06:46 | 6.15470 | 1.20110 | 21957 ft | 461 kts | 245° |
| 2026-04-29 06:46 | 6.14191 | 1.17166 | 21940 ft | 461 kts | 245° |
| 2026-04-29 06:46 | 6.12912 | 1.14216 | 21932 ft | 461 kts | 245° |
| 2026-04-29 06:47 | 6.11627 | 1.11257 | 21928 ft | 461 kts | 245° |
| 2026-04-29 06:47 | 6.10352 | 1.08313 | 21922 ft | 461 kts | 245° |
| 2026-04-29 06:47 | 6.09074 | 1.05358 | 21917 ft | 461 kts | 245° |
| 2026-04-29 06:47 | 6.07790 | 1.02390 | 21910 ft | 461 kts | 245° |
| 2026-04-29 06:48 | 6.06516 | 0.99439 | 21903 ft | 461 kts | 246° |
| 2026-04-29 06:48 | 6.05302 | 0.96454 | 21899 ft | 461 kts | 248° |
| 2026-04-29 06:48 | 6.04159 | 0.93442 | 21890 ft | 462 kts | 249° |
| 2026-04-29 06:48 | 6.03061 | 0.90413 | 21891 ft | 462 kts | 249° |
| 2026-04-29 06:49 | 6.01975 | 0.87373 | 21798 ft | 460 kts | 249° |
| 2026-04-29 06:49 | 6.00888 | 0.84349 | 20898 ft | 461 kts | 249° |
| 2026-04-29 06:49 | 5.99782 | 0.81332 | 20209 ft | 457 kts | 249° |
| 2026-04-29 06:49 | 5.98776 | 0.78371 | 19585 ft | 453 kts | 255° |
| 2026-04-29 06:50 | 5.98171 | 0.75290 | 18972 ft | 448 kts | 260° |
| 2026-04-29 06:50 | 5.97667 | 0.72214 | 18385 ft | 444 kts | 260° |
| 2026-04-29 06:50 | 5.97173 | 0.69175 | 17763 ft | 439 kts | 260° |
| 2026-04-29 06:50 | 5.96686 | 0.66163 | 17208 ft | 432 kts | 260° |
| 2026-04-29 06:51 | 5.96205 | 0.63202 | 16672 ft | 427 kts | 260° |
| 2026-04-29 06:51 | 5.95728 | 0.60277 | 16126 ft | 422 kts | 260° |
| 2026-04-29 06:51 | 5.95257 | 0.57388 | 15583 ft | 418 kts | 260° |
| 2026-04-29 06:51 | 5.94788 | 0.54517 | 15040 ft | 414 kts | 261° |
| 2026-04-29 06:52 | 5.94325 | 0.51674 | 14473 ft | 413 kts | 261° |
| 2026-04-29 06:52 | 5.93862 | 0.48833 | 13902 ft | 411 kts | 261° |
| 2026-04-29 06:52 | 5.93403 | 0.46003 | 13263 ft | 410 kts | 261° |
| 2026-04-29 06:52 | 5.92947 | 0.43185 | 12657 ft | 407 kts | 261° |
| 2026-04-29 06:53 | 5.92495 | 0.40381 | 12033 ft | 405 kts | 261° |
| 2026-04-29 06:53 | 5.92043 | 0.37598 | 11409 ft | 404 kts | 261° |
| 2026-04-29 06:53 | 5.91588 | 0.34815 | 10822 ft | 401 kts | 261° |
| 2026-04-29 06:53 | 5.91145 | 0.32110 | 10674 ft | 385 kts | 261° |
| 2026-04-29 06:54 | 5.90717 | 0.29497 | 10556 ft | 370 kts | 261° |
| 2026-04-29 06:54 | 5.90307 | 0.27000 | 10438 ft | 357 kts | 261° |
| 2026-04-29 06:54 | 5.89911 | 0.24577 | 10322 ft | 345 kts | 261° |
| 2026-04-29 06:54 | 5.89535 | 0.22267 | 10208 ft | 334 kts | 261° |
| 2026-04-29 06:55 | 5.89165 | 0.19993 | 9990 ft | 327 kts | 261° |
| 2026-04-29 06:55 | 5.88800 | 0.17753 | 9816 ft | 324 kts | 261° |
| 2026-04-29 06:55 | 5.88434 | 0.15513 | 9117 ft | 324 kts | 261° |
| 2026-04-29 06:55 | 5.88070 | 0.13297 | 8603 ft | 316 kts | 260° |
| 2026-04-29 06:56 | 5.87715 | 0.11152 | 8062 ft | 309 kts | 260° |
| 2026-04-29 06:56 | 5.87368 | 0.09045 | 7488 ft | 303 kts | 260° |
| 2026-04-29 06:56 | 5.87030 | 0.06980 | 6939 ft | 297 kts | 260° |
| 2026-04-29 06:56 | 5.86699 | 0.04949 | 6390 ft | 292 kts | 260° |
| 2026-04-29 06:57 | 5.86374 | 0.02960 | 5812 ft | 286 kts | 260° |
| 2026-04-29 06:57 | 5.86053 | 0.01000 | 5215 ft | 281 kts | 260° |
| 2026-04-29 06:57 | 5.85739 | -0.00914 | 4656 ft | 276 kts | 259° |
| 2026-04-29 06:57 | 5.85435 | -0.02775 | 4346 ft | 259 kts | 260° |
| 2026-04-29 06:58 | 5.85137 | -0.04486 | 4221 ft | 237 kts | 254° |
| 2026-04-29 06:58 | 5.84511 | -0.05928 | 4101 ft | 216 kts | 235° |
| 2026-04-29 06:58 | 5.83576 | -0.06990 | 3930 ft | 193 kts | 219° |
| 2026-04-29 06:58 | 5.82469 | -0.07689 | 3462 ft | 187 kts | 204° |
| 2026-04-29 06:59 | 5.81276 | -0.08179 | 2987 ft | 183 kts | 204° |
| 2026-04-29 06:59 | 5.80097 | -0.08665 | 2905 ft | 183 kts | 204° |
| 2026-04-29 06:59 | 5.78909 | -0.09154 | 2905 ft | 185 kts | 204° |
| 2026-04-29 06:59 | 5.77717 | -0.09644 | 2905 ft | 185 kts | 204° |
| 2026-04-29 07:00 | 5.76539 | -0.10129 | 2905 ft | 185 kts | 204° |
| 2026-04-29 07:00 | 5.75343 | -0.10622 | 2867 ft | 185 kts | 204° |
| 2026-04-29 07:00 | 5.74156 | -0.11110 | 2697 ft | 185 kts | 204° |
| 2026-04-29 07:00 | 5.72969 | -0.11599 | 2480 ft | 183 kts | 204° |
| 2026-04-29 07:01 | 5.71792 | -0.12083 | 2249 ft | 181 kts | 205° |
| 2026-04-29 07:01 | 5.70665 | -0.12546 | 2017 ft | 170 kts | 204° |
| 2026-04-29 07:01 | 5.69586 | -0.12990 | 1803 ft | 164 kts | 205° |
| 2026-04-29 07:01 | 5.68535 | -0.13423 | 1595 ft | 162 kts | 205° |
| 2026-04-29 07:02 | 5.67529 | -0.13836 | 1412 ft | 149 kts | 206° |
| 2026-04-29 07:02 | 5.66602 | -0.14217 | 1203 ft | 140 kts | 205° |
| 2026-04-29 07:02 | 5.65710 | -0.14585 | 1027 ft | 138 kts | 205° |
| 2026-04-29 07:02 | 5.64826 | -0.14949 | 877 ft | 137 kts | 205° |
| 2026-04-29 07:03 | 5.63946 | -0.15311 | 710 ft | 137 kts | 204° |
| 2026-04-29 07:03 | 5.63063 | -0.15672 | 536 ft | 139 kts | 205° |
| 2026-04-29 07:03 | 5.62171 | -0.16038 | 367 ft | 141 kts | 202° |
| 2026-04-29 07:03 | 5.61258 | -0.16424 | 224 ft | 139 kts | 201° |
| 2026-04-29 07:04 | 5.60468 | -0.16746 | 224 ft | 101 kts | 202° |
| 2026-04-29 07:04 | 5.60108 | -0.16893 | 212 ft | 67 kts | 202° |
| 2026-04-29 07:04 | 5.59903 | -0.17032 | 211 ft | 21 kts | 226° |
| 2026-04-29 07:04 | 5.59874 | -0.17067 | 209 ft | 4 kts | 233° |
| 2026-04-29 07:05 | 5.59860 | -0.17087 | 209 ft | 3 kts | 233° |
| 2026-04-29 07:05 | 5.59835 | -0.17121 | 215 ft | 9 kts | 233° |
| 2026-04-29 07:05 | 5.59820 | -0.17168 | 209 ft | 13 kts | 276° |
| 2026-04-29 07:05 | 5.59882 | -0.17194 | 207 ft | 10 kts | 20° |
| 2026-04-29 07:06 | 5.59968 | -0.17160 | 214 ft | 16 kts | 23° |
| 2026-04-29 07:06 | 5.60092 | -0.17107 | 207 ft | 22 kts | 22° |
| 2026-04-29 07:06 | 5.60200 | -0.17064 | 210 ft | 14 kts | 22° |
| 2026-04-29 07:06 | 5.60291 | -0.17031 | 217 ft | 8 kts | 2° |
| 2026-04-29 07:07 | 5.60330 | -0.17081 | 220 ft | 11 kts | 292° |
| 2026-04-29 07:07 | 5.60342 | -0.17111 | 212 ft | 3 kts | 292° |
| 2026-04-29 07:07 | 5.60343 | -0.17113 | 212 ft | 1 kts | 292° |
| 2026-04-29 07:07 | 5.60343 | -0.17115 | 217 ft | 0 kts | 292° |